Home > Products > Valid Products > TAF

000
FTUS42 KCHS 290525
TAFCHS
TAF
KCHS 290525Z 2906/3006 26004KT P6SM MIFG FEW250
     FM291300 33007KT P6SM SKC
     FM292100 VRB03KT P6SM SKC=



000
FTUS42 KCHS 290525
TAFCHS
TAF
KCHS 290525Z 2906/3006 26004KT P6SM MIFG FEW250
     FM291300 33007KT P6SM SKC
     FM292100 VRB03KT P6SM SKC=



000
FTUS42 KCHS 290525
TAFSAV
TAF
KSAV 290525Z 2906/3006 24003KT P6SM SCT250
     FM291300 31007KT P6SM SKC
     FM291700 VRB03KT P6SM SCT060
     FM292300 VRB03KT P6SM SKC=



000
FTUS42 KCHS 290253 AAA
TAFSAV
TAF AMD
KSAV 290253Z 2903/2924 24006KT P6SM BKN250
     FM291300 31007KT P6SM SKC
     FM292130 17009KT P6SM SCT060=



000
FTUS42 KCHS 290252 AAB
TAFCHS
TAF AMD
KCHS 290252Z 2903/2924 24006KT P6SM MIFG SCT250
     FM291300 33007KT P6SM SKC
     FM292100 19009KT P6SM SCT060=



000
FTUS42 KCHS 290252 AAB
TAFCHS
TAF AMD
KCHS 290252Z 2903/2924 24006KT P6SM MIFG SCT250
     FM291300 33007KT P6SM SKC
     FM292100 19009KT P6SM SCT060=



000
FTUS42 KCHS 290038 AAA
TAFCHS
TAF AMD
KCHS 290038Z 2901/2924 21007KT P6SM SCT060 BKN150
     FM290800 28004KT 6SM BR MIFG FEW010 SCT100
     FM291300 33007KT P6SM SKC
     FM292100 19009KT P6SM SCT060=



000
FTUS42 KCHS 282336
TAFCHS
TAF
KCHS 282336Z 2900/2924 21007KT P6SM SCT060 BKN150
      TEMPO 2900/2901 6SM -SHRA SCT035 BKN060
     FM290800 28004KT 6SM BR MIFG FEW010 SCT100
     FM291300 33007KT P6SM SKC
     FM292100 19009KT P6SM SCT060=



000
FTUS42 KCHS 282336
TAFCHS
TAF
KCHS 282336Z 2900/2924 21007KT P6SM SCT060 BKN150
      TEMPO 2900/2901 6SM -SHRA SCT035 BKN060
     FM290800 28004KT 6SM BR MIFG FEW010 SCT100
     FM291300 33007KT P6SM SKC
     FM292100 19009KT P6SM SCT060=



000
FTUS42 KCHS 282336
TAFSAV
TAF
KSAV 282336Z 2900/2924 24007KT P6SM SCT060
     FM291300 31007KT P6SM SKC
     FM292130 17009KT P6SM SCT060=



000
FTUS42 KCHS 282336
TAFSAV
TAF
KSAV 282336Z 2900/2924 24007KT P6SM SCT060
     FM291300 31007KT P6SM SKC
     FM292130 17009KT P6SM SCT060=



000
FTUS42 KCHS 282246 AAC
TAFCHS
TAF AMD
KCHS 282246Z 2823/2918 22005KT P6SM SCT035 SCT060 BKN150
     FM290800 VRB03KT 6SM BR BCFG FEW010 SCT100
     FM291300 33007KT P6SM SKC=



000
FTUS42 KCHS 282120 AAB
TAFCHS
TAF AMD
KCHS 282120Z 2821/2918 21011KT P6SM VCTS SCT035CB BKN070
      TEMPO 2821/2823 24022G35KT 4SM +TSRA BKN040CB
     FM290000 24005KT P6SM FEW050 SCT250
     FM291300 33007KT P6SM SKC=



000
FTUS42 KCHS 282110 AAA
TAFSAV
TAF AMD
KSAV 282110Z 2821/2918 23010KT P6SM SCT050 BKN100
     FM290000 23005KT P6SM SCT060
     FM291300 30007KT P6SM SKC=



000
FTUS42 KCHS 282101 AAB
TAFCHS
TAF AMD
KCHS 282101Z 2821/2918 21011KT P6SM VCTS SCT035CB BKN070
      TEMPO 2821/2823 22014G25KT 4SM +TSRA BKN040CB
     FM290000 24005KT P6SM FEW050 SCT250
     FM291300 33007KT P6SM SKC=



000
FTUS42 KCHS 281946 AAA
TAFCHS
TAF AMD
KCHS 281946Z 2820/2918 19011G17KT P6SM VCTS SCT035CB BKN070
      TEMPO 2820/2822 5SM -TSRA BKN040CB
     FM290000 24005KT P6SM FEW050 SCT250
     FM291300 33007KT P6SM SKC=



000
FTUS42 KCHS 281748 CCA
TAFCHS
TAF COR
KCHS 281748Z 2818/2918 22011KT P6SM VCSH SCT040
     FM282000 19011G17KT P6SM SCT035 BKN070
     FM290000 24005KT P6SM FEW050 SCT250
     FM291300 33007KT P6SM SKC=



000
FTUS42 KCHS 281727
TAFCHS
TAF
KCHS 281727Z 2818/2918 22011KT P6SM SCT040
     FM282000 19011G17KT P6SM SCT035 BKN070
     FM290000 24005KT P6SM FEW050 SCT250
     FM291300 33007KT P6SM SKC=



000
FTUS42 KCHS 281727
TAFSAV
TAF
KSAV 281727Z 2818/2918 23010KT P6SM BKN050
      TEMPO 2821/2824 6SM -TSRA BKN035CB
     FM290000 23005KT P6SM SCT060
     FM291300 30007KT P6SM SKC=



000
FTUS42 KCHS 281259 AAA
TAFCHS
TAF AMD
KCHS 281259Z 2813/2912 24008KT P6SM SCT080
      TEMPO 2813/2814 6SM -SHRA BKN040
     FM281600 22012G18KT P6SM SCT040
     FM282100 18013G20KT P6SM SCT035 BKN070
     FM290000 20008KT P6SM SCT250=



000
FTUS42 KCHS 281259 AAA
TAFCHS
TAF AMD
KCHS 281259Z 2813/2912 24008KT P6SM SCT080
      TEMPO 2813/2814 6SM -SHRA BKN040
     FM281600 22012G18KT P6SM SCT040
     FM282100 18013G20KT P6SM SCT035 BKN070
     FM290000 20008KT P6SM SCT250=



000
FTUS42 KCHS 281134
TAFSAV
TAF
KSAV 281134Z 2812/2912 19008KT P6SM BKN120
     FM281300 23007KT P6SM SCT100
     FM281600 24010KT P6SM SCT040 BKN080
      TEMPO 2820/2823 4SM -TSRA BR BKN060CB
     FM290000 22010KT P6SM SCT060=



000
FTUS42 KCHS 281134
TAFCHS
TAF
KCHS 281134Z 2812/2912 24008KT P6SM SCT120
     FM281600 22012G18KT P6SM SCT040
     FM282100 18013G20KT P6SM SCT035 BKN070
     FM290000 20008KT P6SM SCT250=



000
FTUS42 KCHS 281134
TAFSAV
TAF
KSAV 281134Z 2812/2912 19008KT P6SM BKN120
     FM281300 23007KT P6SM SCT100
     FM281600 24010KT P6SM SCT040 BKN080
      TEMPO 2820/2823 4SM -TSRA BR BKN060CB
     FM290000 22010KT P6SM SCT060=



000
FTUS42 KCHS 281134
TAFCHS
TAF
KCHS 281134Z 2812/2912 24008KT P6SM SCT120
     FM281600 22012G18KT P6SM SCT040
     FM282100 18013G20KT P6SM SCT035 BKN070
     FM290000 20008KT P6SM SCT250=



000
FTUS42 KCHS 280535
TAFCHS
TAF
KCHS 280535Z 2806/2906 20010KT P6SM SCT250
     FM281300 24008KT P6SM SCT100
     FM281600 22010KT P6SM SCT040
     FM282100 18012G18KT P6SM SCT035 BKN070
     FM290000 20008KT P6SM SCT250=



000
FTUS42 KCHS 280535
TAFSAV
TAF
KSAV 280535Z 2806/2906 19008KT P6SM SCT250
     FM281300 23007KT P6SM SCT100
     FM281600 24010KT P6SM SCT040 BKN080
     FM282000 22010KT P6SM SCT060=



000
FTUS42 KCHS 280256 AAA
TAFSAV
TAF AMD
KSAV 280256Z 2803/2824 19010KT P6SM SCT080 BKN250 WS020/20030KT
     FM281200 23007KT P6SM SCT025 BKN150
     FM282000 23012G18KT P6SM SCT040 BKN080=



000
FTUS42 KCHS 280255 AAA
TAFCHS
TAF AMD
KCHS 280255Z 2803/2824 20010KT P6SM SCT080 BKN250 WS020/23035KT
     FM281200 24008KT P6SM SCT020 BKN120
     FM281800 22013G19KT P6SM SCT035 BKN070=



000
FTUS42 KCHS 272334
TAFCHS
TAF
KCHS 272334Z 2800/2824 20011KT P6SM SCT080 BKN250
     FM280400 21007KT P6SM SCT012 BKN250 WS020/23035KT
     FM281200 24008KT P6SM SCT025 BKN120
     FM281800 22013G19KT P6SM SCT035 BKN070=



000
FTUS42 KCHS 272334
TAFSAV
TAF
KSAV 272334Z 2800/2824 17011KT P6SM SCT080 BKN250
     FM280400 20006KT P6SM SCT015 BKN250 WS020/20030KT
     FM281200 23007KT P6SM SCT025 BKN150
     FM282000 23012G18KT P6SM SCT040 BKN080=



000
FTUS42 KCHS 272007 AAA
TAFSAV
TAF AMD
KSAV 272007Z 2720/2818 16011KT P6SM VCSH SCT050
     FM272300 19007KT P6SM FEW060 SCT250=



000
FTUS42 KCHS 271744 CCA
TAFCHS
TAF COR
KCHS 271744Z 2718/2818 19011G17KT P6SM FEW050
     FM272300 21007KT P6SM FEW060 SCT250=



000
FTUS42 KCHS 271744 CCA
TAFCHS
TAF COR
KCHS 271744Z 2718/2818 19011G17KT P6SM FEW050
     FM272300 21007KT P6SM FEW060 SCT250=



000
FTUS42 KCHS 271720
TAFSAV
TAF
KSAV 271720Z 2718/2818 21009KT P6SM FEW050
     FM272000 15010KT P6SM SCT050
     FM272300 19007KT P6SM FEW060 SCT250=



000
FTUS42 KCHS 271720
TAFCHS
TAF
KCHS 271720Z 2718/2818 22010KT P6SM SCT050
     FM271900 19011G17KT P6SM FEW050
     FM272300 21007KT P6SM FEW060 SCT250=



000
FTUS42 KCHS 271120
TAFSAV
TAF
KSAV 271120Z 2712/2812 19008KT P6SM FEW060
      TEMPO 2713/2715 20012G18KT
     FM271500 18008KT P6SM SCT050
     FM272000 15009KT P6SM BKN050
     FM272300 17008KT P6SM SCT250=



000
FTUS42 KCHS 271120
TAFCHS
TAF
KCHS 271120Z 2712/2812 21008KT P6SM FEW060
      TEMPO 2713/2715 21012G18KT
     FM271600 19008KT P6SM SCT050
     FM272300 18007KT P6SM SCT250=



000
FTUS42 KCHS 270535
TAFSAV
TAF
KSAV 270535Z 2706/2806 19008KT P6SM FEW060
      TEMPO 2713/2715 20012G18KT
     FM271500 18008KT P6SM SCT050
     FM272000 15009KT P6SM FEW050
     FM272300 17008KT P6SM SCT250=



000
FTUS42 KCHS 270535
TAFCHS
TAF
KCHS 270535Z 2706/2806 20008KT P6SM FEW060
      TEMPO 2713/2715 21012G18KT
     FM271600 19008KT P6SM SCT050
     FM272300 18007KT P6SM SCT250=



000
FTUS42 KCHS 270535
TAFCHS
TAF
KCHS 270535Z 2706/2806 20008KT P6SM FEW060
      TEMPO 2713/2715 21012G18KT
     FM271600 19008KT P6SM SCT050
     FM272300 18007KT P6SM SCT250=



000
FTUS42 KCHS 270535
TAFSAV
TAF
KSAV 270535Z 2706/2806 19008KT P6SM FEW060
      TEMPO 2713/2715 20012G18KT
     FM271500 18008KT P6SM SCT050
     FM272000 15009KT P6SM FEW050
     FM272300 17008KT P6SM SCT250=



000
FTUS42 KCHS 262320
TAFCHS
TAF
KCHS 262320Z 2700/2724 21007KT P6SM FEW060 SCT080
     FM271900 19011G16KT P6SM FEW050=



000
FTUS42 KCHS 262320
TAFSAV
TAF
KSAV 262320Z 2700/2724 20007KT P6SM FEW060 SCT080
     FM271900 17011G16KT P6SM FEW050 SCT080=



000
FTUS42 KCHS 262320
TAFSAV
TAF
KSAV 262320Z 2700/2724 20007KT P6SM FEW060 SCT080
     FM271900 17011G16KT P6SM FEW050 SCT080=



000
FTUS42 KCHS 262320
TAFCHS
TAF
KCHS 262320Z 2700/2724 21007KT P6SM FEW060 SCT080
     FM271900 19011G16KT P6SM FEW050=



000
FTUS42 KCHS 261725
TAFSAV
TAF
KSAV 261725Z 2618/2718 17010KT P6SM SCT050
     FM262300 20005KT P6SM FEW060=



000
FTUS42 KCHS 261725
TAFCHS
TAF
KCHS 261725Z 2618/2718 22007KT P6SM SCT050
     FM261900 20011G16KT P6SM FEW050
     FM262300 22005KT P6SM FEW060=



000
FTUS42 KCHS 261122
TAFCHS
TAF
KCHS 261122Z 2612/2712 22007KT P6SM SKC
     FM262000 20011G16KT P6SM FEW050
     FM270000 21006KT P6SM SCT060=



000
FTUS42 KCHS 261122
TAFSAV
TAF
KSAV 261122Z 2612/2712 19007KT P6SM SCT050=



    US Dept of Commerce
    National Oceanic and Atmospheric Administration
    National Weather Service
    1325 East West Highway
    Silver Spring, MD 20910
    Page Author: NWS Internet Services Team
Disclaimer
Information Quality
Credits
Glossary
Privacy Policy
Freedom of Information Act (FOIA)
About Us
Career Opportunities